Time,TemperatureF,DewpointF,PressureIn,WindDirection,WindDirectionDegrees,WindSpeedMPH,WindSpeedGustMPH,Humidity,HourlyPrecipIn,Conditions,Clouds,dailyrainin,SoftwareType,DateUTC
2013-08-28 00:05:00,68.4,67.0,29.88,SSE,148,0.0,-999.0,94,-99.99,,,0.10,weatherlink.com 1.10,2013-08-28 04:05:00,
2013-08-28 00:20:00,68.2,67.0,29.88,SSE,148,0.0,-999.0,94,-99.99,,,0.00,weatherlink.com 1.10,2013-08-28 04:20:00,
2013-08-28 00:35:00,68.0,66.0,29.88,SSE,148,0.0,-999.0,94,-99.99,,,0.00,weatherlink.com 1.10,2013-08-28 04:35:00,
2013-08-28 00:50:00,67.8,66.0,29.88,SSE,148,0.0,-999.0,94,-99.99,,,0.00,weatherlink.com 1.10,2013-08-28 04:50:00,
2013-08-28 01:05:00,67.5,66.0,29.88,SSE,148,0.0,-999.0,94,-99.99,,,0.00,weatherlink.com 1.10,2013-08-28 05:05:00,
2013-08-28 01:20:00,67.4,66.0,29.87,SSE,148,0.0,-999.0,95,-99.99,,,0.00,weatherlink.com 1.10,2013-08-28 05:20:00,
2013-08-28 01:35:00,67.6,66.0,29.87,SSE,148,0.0,-999.0,95,-99.99,,,0.00,weatherlink.com 1.10,2013-08-28 05:35:00,
2013-08-28 01:50:00,67.2,66.0,29.87,SSE,148,0.0,-999.0,95,-99.99,,,0.00,weatherlink.com 1.10,2013-08-28 05:50:00,
2013-08-28 02:05:00,67.6,66.0,29.87,SSE,148,0.0,-999.0,95,-99.99,,,0.00,weatherlink.com 1.10,2013-08-28 06:05:00,
2013-08-28 02:21:00,68.2,67.0,29.86,SSE,148,0.0,-999.0,95,-99.99,,,0.00,weatherlink.com 1.10,2013-08-28 06:21:00,
2013-08-28 02:36:00,68.1,67.0,29.86,SSE,148,0.0,-999.0,95,-99.99,,,0.00,weatherlink.com 1.10,2013-08-28 06:36:00,
2013-08-28 02:51:00,67.5,66.0,29.86,SSE,148,0.0,-999.0,95,-99.99,,,0.00,weatherlink.com 1.10,2013-08-28 06:51:00,
2013-08-28 03:06:00,67.2,66.0,29.86,SSE,148,0.0,-999.0,95,-99.99,,,0.00,weatherlink.com 1.10,2013-08-28 07:06:00,
2013-08-28 03:21:00,66.8,65.0,29.85,SSE,148,0.0,-999.0,95,-99.99,,,0.00,weatherlink.com 1.10,2013-08-28 07:21:00,
2013-08-28 03:36:00,66.5,65.0,29.85,SSE,148,0.0,-999.0,95,-99.99,,,0.00,weatherlink.com 1.10,2013-08-28 07:36:00,
2013-08-28 03:51:00,66.1,65.0,29.86,SSE,148,0.0,-999.0,95,-99.99,,,0.00,weatherlink.com 1.10,2013-08-28 07:51:00,
2013-08-28 04:06:00,66.1,65.0,29.86,SSE,148,0.0,-999.0,96,-99.99,,,0.00,weatherlink.com 1.10,2013-08-28 08:06:00,
2013-08-28 04:21:00,65.7,65.0,29.86,SSE,148,0.0,-999.0,96,-99.99,,,0.00,weatherlink.com 1.10,2013-08-28 08:21:00,
2013-08-28 04:36:00,65.6,65.0,29.86,SSE,148,0.0,-999.0,96,-99.99,,,0.00,weatherlink.com 1.10,2013-08-28 08:36:00,
2013-08-28 04:51:00,65.9,65.0,29.86,SSE,148,0.0,-999.0,96,-99.99,,,0.00,weatherlink.com 1.10,2013-08-28 08:51:00,
2013-08-28 05:06:00,66.0,65.0,29.86,SSE,148,0.0,-999.0,96,-99.99,,,0.00,weatherlink.com 1.10,2013-08-28 09:06:00,
2013-08-28 05:21:00,65.9,65.0,29.86,SSE,148,0.0,-999.0,96,-99.99,,,0.00,weatherlink.com 1.10,2013-08-28 09:21:00,
2013-08-28 05:36:00,65.9,65.0,29.87,SSE,148,0.0,-999.0,96,-99.99,,,0.00,weatherlink.com 1.10,2013-08-28 09:36:00,
2013-08-28 05:52:00,65.6,65.0,29.87,SSE,148,0.0,-999.0,96,-99.99,,,0.00,weatherlink.com 1.10,2013-08-28 09:52:00,
2013-08-28 06:06:00,65.3,64.0,29.87,SSE,148,0.0,-999.0,96,-99.99,,,0.00,weatherlink.com 1.10,2013-08-28 10:06:00,
2013-08-28 06:21:00,65.4,64.0,29.88,SSE,148,0.0,-999.0,96,-99.99,,,0.00,weatherlink.com 1.10,2013-08-28 10:21:00,
2013-08-28 06:36:00,65.0,64.0,29.88,SSE,148,0.0,-999.0,96,-99.99,,,0.00,weatherlink.com 1.10,2013-08-28 10:36:00,
2013-08-28 06:51:00,64.8,64.0,29.88,SSE,148,0.0,-999.0,96,-99.99,,,0.00,weatherlink.com 1.10,2013-08-28 10:51:00,
2013-08-28 07:06:00,65.0,64.0,29.89,SSE,148,0.0,-999.0,96,-99.99,,,0.00,weatherlink.com 1.10,2013-08-28 11:06:00,
2013-08-28 07:21:00,65.5,64.0,29.88,SSE,148,0.0,-999.0,96,-99.99,,,0.00,weatherlink.com 1.10,2013-08-28 11:21:00,
2013-08-28 07:36:00,65.9,65.0,29.88,SSE,148,0.0,-999.0,97,-99.99,,,0.00,weatherlink.com 1.10,2013-08-28 11:36:00,
2013-08-28 07:51:00,66.2,65.0,29.89,NE,51,0.0,-999.0,97,-99.99,,,0.00,weatherlink.com 1.10,2013-08-28 11:51:00,
2013-08-28 08:06:00,66.6,66.0,29.89,NNE,19,1.0,-999.0,97,-99.99,,,0.00,weatherlink.com 1.10,2013-08-28 12:06:00,
2013-08-28 08:21:00,66.8,66.0,29.89,NNE,19,0.0,-999.0,97,-99.99,,,0.00,weatherlink.com 1.10,2013-08-28 12:21:00,
2013-08-28 08:36:00,66.9,66.0,29.88,NNE,19,0.0,-999.0,97,-99.99,,,0.00,weatherlink.com 1.10,2013-08-28 12:36:00,
2013-08-28 08:51:00,67.6,67.0,29.88,NNE,19,0.0,-999.0,97,-99.99,,,0.00,weatherlink.com 1.10,2013-08-28 12:51:00,
2013-08-28 09:07:00,68.2,67.0,29.89,NNE,19,0.0,-999.0,97,-99.99,,,0.00,weatherlink.com 1.10,2013-08-28 13:07:00,
2013-08-28 09:22:00,68.3,68.0,29.88,NNE,19,0.0,-999.0,97,-99.99,,,0.00,weatherlink.com 1.10,2013-08-28 13:22:00,
2013-08-28 09:37:00,68.8,68.0,29.88,NNE,19,0.0,-999.0,97,-99.99,,,0.00,weatherlink.com 1.10,2013-08-28 13:37:00,
2013-08-28 09:52:00,69.3,69.0,29.88,NNE,19,0.0,-999.0,97,-99.99,,,0.00,weatherlink.com 1.10,2013-08-28 13:52:00,
2013-08-28 10:07:00,71.4,70.0,29.88,NNE,19,0.0,-999.0,95,-99.99,,,0.00,weatherlink.com 1.10,2013-08-28 14:07:00,
2013-08-28 10:22:00,72.0,70.0,29.88,NNE,19,0.0,-999.0,93,-99.99,,,0.00,weatherlink.com 1.10,2013-08-28 14:22:00,
2013-08-28 10:37:00,73.8,71.0,29.88,NNE,24,0.0,-999.0,90,-99.99,,,0.00,weatherlink.com 1.10,2013-08-28 14:37:00,
2013-08-28 10:52:00,76.7,72.0,29.88,NNE,24,0.0,-999.0,84,-99.99,,,0.00,weatherlink.com 1.10,2013-08-28 14:52:00,
2013-08-28 11:07:00,78.2,72.0,29.88,NNE,24,0.0,-999.0,81,-99.99,,,0.00,weatherlink.com 1.10,2013-08-28 15:07:00,
2013-08-28 11:22:00,78.4,71.0,29.88,NNE,24,0.0,-999.0,79,-99.99,,,0.00,weatherlink.com 1.10,2013-08-28 15:22:00,
2013-08-28 11:37:00,79.7,70.0,29.87,West,274,0.0,-999.0,73,-99.99,,,0.00,weatherlink.com 1.10,2013-08-28 15:37:00,
2013-08-28 11:52:00,79.8,71.0,29.87,West,275,0.0,-999.0,74,-99.99,,,0.00,weatherlink.com 1.10,2013-08-28 15:52:00,
2013-08-28 12:07:00,82.1,71.0,29.87,West,269,0.0,-999.0,69,-99.99,,,0.00,weatherlink.com 1.10,2013-08-28 16:07:00,
2013-08-28 12:22:00,81.7,71.0,29.86,West,270,0.0,-999.0,69,-99.99,,,0.00,weatherlink.com 1.10,2013-08-28 16:22:00,
2013-08-28 12:37:00,80.6,71.0,29.86,ESE,111,0.0,-999.0,73,-99.99,,,0.00,weatherlink.com 1.10,2013-08-28 16:37:00,
2013-08-28 12:52:00,84.2,71.0,29.85,SE,142,0.0,-999.0,65,-99.99,,,0.00,weatherlink.com 1.10,2013-08-28 16:52:00,
2013-08-28 13:07:00,84.8,72.0,29.85,South,174,0.0,-999.0,66,-99.99,,,0.00,weatherlink.com 1.10,2013-08-28 17:07:00,
2013-08-28 13:22:00,85.2,71.0,29.84,South,173,0.0,-999.0,63,-99.99,,,0.00,weatherlink.com 1.10,2013-08-28 17:22:00,
2013-08-28 13:37:00,87.2,70.0,29.84,WSW,240,0.0,-999.0,57,-99.99,,,0.00,weatherlink.com 1.10,2013-08-28 17:37:00,
2013-08-28 14:23:00,84.9,71.0,29.83,ENE,59,0.0,-999.0,63,-99.99,,,0.00,weatherlink.com 1.10,2013-08-28 18:23:00,
2013-08-28 14:38:00,85.0,70.0,29.82,NNE,26,0.0,-999.0,61,-99.99,,,0.00,weatherlink.com 1.10,2013-08-28 18:38:00,
2013-08-28 14:53:00,86.9,70.0,29.82,SSE,156,0.0,-999.0,57,-99.99,,,0.00,weatherlink.com 1.10,2013-08-28 18:53:00,
2013-08-28 15:08:00,88.4,71.0,29.82,SSE,156,0.0,-999.0,56,-99.99,,,0.00,weatherlink.com 1.10,2013-08-28 19:08:00,
2013-08-28 15:23:00,86.4,70.0,29.82,SSE,156,0.0,-999.0,59,-99.99,,,0.00,weatherlink.com 1.10,2013-08-28 19:23:00,
2013-08-28 15:38:00,88.7,72.0,29.81,ESE,111,0.0,-999.0,58,-99.99,,,0.00,weatherlink.com 1.10,2013-08-28 19:38:00,
2013-08-28 15:53:00,86.7,70.0,29.81,ESE,117,0.0,-999.0,57,-99.99,,,0.00,weatherlink.com 1.10,2013-08-28 19:53:00,
2013-08-28 16:08:00,88.5,70.0,29.80,ESE,107,0.0,-999.0,54,-99.99,,,0.00,weatherlink.com 1.10,2013-08-28 20:08:00,
2013-08-28 16:23:00,87.8,69.0,29.80,SSE,165,0.0,-999.0,53,-99.99,,,0.00,weatherlink.com 1.10,2013-08-28 20:23:00,
2013-08-28 16:38:00,87.7,70.0,29.81,SSE,165,0.0,-999.0,55,-99.99,,,0.00,weatherlink.com 1.10,2013-08-28 20:38:00,
2013-08-28 16:53:00,86.5,67.0,29.81,North,5,0.0,-999.0,53,-99.99,,,0.00,weatherlink.com 1.10,2013-08-28 20:53:00,
2013-08-28 17:23:00,86.3,69.0,29.81,North,5,0.0,-999.0,56,-99.99,,,0.00,weatherlink.com 1.10,2013-08-28 21:23:00,
2013-08-28 17:38:00,87.3,70.0,29.81,SE,132,0.0,-999.0,56,-99.99,,,0.00,weatherlink.com 1.10,2013-08-28 21:38:00,
2013-08-28 17:53:00,87.0,70.0,29.82,SE,132,0.0,-999.0,57,-99.99,,,0.00,weatherlink.com 1.10,2013-08-28 21:53:00,
2013-08-28 18:08:00,86.5,70.0,29.82,SE,132,0.0,-999.0,58,-99.99,,,0.00,weatherlink.com 1.10,2013-08-28 22:08:00,
2013-08-28 18:23:00,84.2,71.0,29.82,SE,132,0.0,-999.0,64,-99.99,,,0.00,weatherlink.com 1.10,2013-08-28 22:23:00,
2013-08-28 18:38:00,82.2,72.0,29.83,SE,132,0.0,-999.0,70,-99.99,,,0.00,weatherlink.com 1.10,2013-08-28 22:38:00,
2013-08-28 18:53:00,80.7,70.0,29.83,SE,132,0.0,-999.0,70,-99.99,,,0.00,weatherlink.com 1.10,2013-08-28 22:53:00,
2013-08-28 19:08:00,79.8,70.0,29.84,NNE,14,0.0,-999.0,72,-99.99,,,0.00,weatherlink.com 1.10,2013-08-28 23:08:00,
2013-08-28 19:24:00,77.7,69.0,29.85,South,175,0.0,-999.0,75,-99.99,,,0.00,weatherlink.com 1.10,2013-08-28 23:24:00,
2013-08-28 19:38:00,76.1,69.0,29.85,NW,322,0.0,-999.0,78,-99.99,,,0.00,weatherlink.com 1.10,2013-08-28 23:38:00,
2013-08-28 19:53:00,75.5,69.0,29.86,North,350,0.0,-999.0,80,-99.99,,,0.00,weatherlink.com 1.10,2013-08-28 23:53:00,
2013-08-28 20:09:00,75.1,69.0,29.87,North,350,0.0,-999.0,80,-99.99,,,0.00,weatherlink.com 1.10,2013-08-29 00:09:00,
2013-08-28 20:24:00,74.7,69.0,29.87,North,350,0.0,-999.0,82,-99.99,,,0.00,weatherlink.com 1.10,2013-08-29 00:24:00,
2013-08-28 20:39:00,74.4,69.0,29.88,North,350,0.0,-999.0,82,-99.99,,,0.00,weatherlink.com 1.10,2013-08-29 00:39:00,
2013-08-28 20:54:00,74.1,68.0,29.88,North,350,0.0,-999.0,82,-99.99,,,0.00,weatherlink.com 1.10,2013-08-29 00:54:00,
2013-08-28 21:09:00,73.7,68.0,29.89,North,350,0.0,-999.0,83,-99.99,,,0.00,weatherlink.com 1.10,2013-08-29 01:09:00,
2013-08-28 21:24:00,73.2,68.0,29.88,North,350,0.0,-999.0,84,-99.99,,,0.00,weatherlink.com 1.10,2013-08-29 01:24:00,
2013-08-28 21:39:00,72.5,68.0,29.88,North,350,0.0,-999.0,85,-99.99,,,0.00,weatherlink.com 1.10,2013-08-29 01:39:00,
2013-08-28 21:54:00,72.0,68.0,29.88,North,350,0.0,-999.0,86,-99.99,,,0.00,weatherlink.com 1.10,2013-08-29 01:54:00,
2013-08-28 22:09:00,71.6,68.0,29.88,North,350,0.0,-999.0,87,-99.99,,,0.00,weatherlink.com 1.10,2013-08-29 02:09:00,
2013-08-28 22:24:00,71.4,68.0,29.88,North,350,0.0,-999.0,88,-99.99,,,0.00,weatherlink.com 1.10,2013-08-29 02:24:00,
2013-08-28 22:39:00,71.3,68.0,29.89,NNE,13,0.0,-999.0,88,-99.99,,,0.00,weatherlink.com 1.10,2013-08-29 02:39:00,
2013-08-28 22:54:00,71.1,68.0,29.89,NNE,13,0.0,-999.0,89,-99.99,,,0.00,weatherlink.com 1.10,2013-08-29 02:54:00,
2013-08-28 23:09:00,70.7,67.0,29.90,NNE,13,0.0,-999.0,89,-99.99,,,0.00,weatherlink.com 1.10,2013-08-29 03:09:00,
2013-08-28 23:24:00,70.3,67.0,29.90,NNE,13,0.0,-999.0,90,-99.99,,,0.00,weatherlink.com 1.10,2013-08-29 03:24:00,
2013-08-28 23:39:00,70.0,67.0,29.91,NNE,13,0.0,-999.0,91,-99.99,,,0.00,weatherlink.com 1.10,2013-08-29 03:39:00,
2013-08-28 23:54:00,69.7,67.0,29.91,NNE,13,0.0,-999.0,91,-99.99,,,0.00,weatherlink.com 1.10,2013-08-29 03:54:00,